sensor_id;sensor_type;location;lat;lon;timestamp;temperature;humidity
37340;DHT22;23223;51.006;7.610;2023-10-09T00:01:27;12.40;99.90
37340;DHT22;23223;51.006;7.610;2023-10-09T00:03:53;12.40;99.90
37340;DHT22;23223;51.006;7.610;2023-10-09T00:06:21;12.60;99.90
37340;DHT22;23223;51.006;7.610;2023-10-09T00:08:55;12.50;99.90
37340;DHT22;23223;51.006;7.610;2023-10-09T00:11:23;12.30;99.90
37340;DHT22;23223;51.006;7.610;2023-10-09T00:13:55;12.20;99.90
37340;DHT22;23223;51.006;7.610;2023-10-09T00:16:25;12.10;99.90
37340;DHT22;23223;51.006;7.610;2023-10-09T00:19:12;12.20;99.90
37340;DHT22;23223;51.006;7.610;2023-10-09T00:21:43;12.70;99.90
37340;DHT22;23223;51.006;7.610;2023-10-09T00:24:09;13.10;99.90
37340;DHT22;23223;51.006;7.610;2023-10-09T00:26:54;13.40;99.90
37340;DHT22;23223;51.006;7.610;2023-10-09T00:29:27;13.40;99.90
37340;DHT22;23223;51.006;7.610;2023-10-09T00:32:00;13.40;99.90
37340;DHT22;23223;51.006;7.610;2023-10-09T00:34:55;13.50;99.90
37340;DHT22;23223;51.006;7.610;2023-10-09T00:37:23;13.30;99.90
37340;DHT22;23223;51.006;7.610;2023-10-09T00:39:51;13.00;99.90
37340;DHT22;23223;51.006;7.610;2023-10-09T00:42:26;13.00;99.90
37340;DHT22;23223;51.006;7.610;2023-10-09T00:45:00;13.00;99.90
37340;DHT22;23223;51.006;7.610;2023-10-09T00:47:31;13.10;99.90
37340;DHT22;23223;51.006;7.610;2023-10-09T00:50:03;13.50;99.90
37340;DHT22;23223;51.006;7.610;2023-10-09T00:52:44;13.80;99.90
37340;DHT22;23223;51.006;7.610;2023-10-09T00:55:26;14.10;99.90
37340;DHT22;23223;51.006;7.610;2023-10-09T00:58:06;14.00;99.90
37340;DHT22;23223;51.006;7.610;2023-10-09T01:00:38;13.60;99.90
37340;DHT22;23223;51.006;7.610;2023-10-09T01:03:19;13.50;99.90
37340;DHT22;23223;51.006;7.610;2023-10-09T01:06:04;13.40;99.90
37340;DHT22;23223;51.006;7.610;2023-10-09T01:08:37;13.10;99.90
37340;DHT22;23223;51.006;7.610;2023-10-09T01:11:15;12.90;99.90
37340;DHT22;23223;51.006;7.610;2023-10-09T01:13:47;12.80;99.90
37340;DHT22;23223;51.006;7.610;2023-10-09T01:16:13;13.00;99.90
37340;DHT22;23223;51.006;7.610;2023-10-09T01:18:46;13.10;99.90
37340;DHT22;23223;51.006;7.610;2023-10-09T01:21:18;12.80;99.90
37340;DHT22;23223;51.006;7.610;2023-10-09T01:23:48;12.50;99.90
37340;DHT22;23223;51.006;7.610;2023-10-09T01:26:42;12.30;99.90
37340;DHT22;23223;51.006;7.610;2023-10-09T01:29:16;11.90;99.90
37340;DHT22;23223;51.006;7.610;2023-10-09T01:31:50;11.70;99.90
37340;DHT22;23223;51.006;7.610;2023-10-09T01:34:22;11.80;99.90
37340;DHT22;23223;51.006;7.610;2023-10-09T01:36:50;11.90;99.90
37340;DHT22;23223;51.006;7.610;2023-10-09T01:39:19;12.10;99.90
37340;DHT22;23223;51.006;7.610;2023-10-09T01:41:56;12.10;99.90
37340;DHT22;23223;51.006;7.610;2023-10-09T01:44:26;12.00;99.90
37340;DHT22;23223;51.006;7.610;2023-10-09T01:46:53;12.20;99.90
37340;DHT22;23223;51.006;7.610;2023-10-09T01:49:24;12.20;99.90
37340;DHT22;23223;51.006;7.610;2023-10-09T01:51:57;12.00;99.90
37340;DHT22;23223;51.006;7.610;2023-10-09T01:54:32;11.70;99.90
37340;DHT22;23223;51.006;7.610;2023-10-09T01:57:07;11.60;99.90
37340;DHT22;23223;51.006;7.610;2023-10-09T01:59:39;11.70;99.90
37340;DHT22;23223;51.006;7.610;2023-10-09T02:02:15;11.90;99.90
37340;DHT22;23223;51.006;7.610;2023-10-09T02:05:05;12.00;99.90
37340;DHT22;23223;51.006;7.610;2023-10-09T02:07:40;12.10;99.90
37340;DHT22;23223;51.006;7.610;2023-10-09T02:10:12;12.00;99.90
37340;DHT22;23223;51.006;7.610;2023-10-09T02:13:07;11.90;99.90
37340;DHT22;23223;51.006;7.610;2023-10-09T02:15:37;11.80;99.90
37340;DHT22;23223;51.006;7.610;2023-10-09T02:18:21;11.90;99.90
37340;DHT22;23223;51.006;7.610;2023-10-09T02:20:51;12.00;99.90
37340;DHT22;23223;51.006;7.610;2023-10-09T02:23:26;12.20;99.90
37340;DHT22;23223;51.006;7.610;2023-10-09T02:26:04;12.70;99.90
37340;DHT22;23223;51.006;7.610;2023-10-09T02:28:32;13.00;99.90
37340;DHT22;23223;51.006;7.610;2023-10-09T02:31:01;13.30;99.90
37340;DHT22;23223;51.006;7.610;2023-10-09T02:33:47;13.30;99.90
37340;DHT22;23223;51.006;7.610;2023-10-09T02:36:13;13.10;99.90
37340;DHT22;23223;51.006;7.610;2023-10-09T02:38:39;12.80;99.90
37340;DHT22;23223;51.006;7.610;2023-10-09T02:41:08;12.70;99.90
37340;DHT22;23223;51.006;7.610;2023-10-09T02:43:39;12.60;99.90
37340;DHT22;23223;51.006;7.610;2023-10-09T02:46:15;12.70;99.90
37340;DHT22;23223;51.006;7.610;2023-10-09T02:48:47;12.70;99.90
37340;DHT22;23223;51.006;7.610;2023-10-09T02:51:17;12.80;99.90
37340;DHT22;23223;51.006;7.610;2023-10-09T02:54:00;12.90;99.90
37340;DHT22;23223;51.006;7.610;2023-10-09T02:56:32;13.10;99.90
37340;DHT22;23223;51.006;7.610;2023-10-09T02:59:13;13.10;99.90
37340;DHT22;23223;51.006;7.610;2023-10-09T03:01:40;12.80;99.90
37340;DHT22;23223;51.006;7.610;2023-10-09T03:04:06;12.60;99.90
37340;DHT22;23223;51.006;7.610;2023-10-09T03:06:33;12.60;99.90
37340;DHT22;23223;51.006;7.610;2023-10-09T03:09:03;12.80;99.90
37340;DHT22;23223;51.006;7.610;2023-10-09T03:11:46;12.90;99.90
37340;DHT22;23223;51.006;7.610;2023-10-09T03:14:14;12.70;99.90
37340;DHT22;23223;51.006;7.610;2023-10-09T03:16:39;12.50;99.90
37340;DHT22;23223;51.006;7.610;2023-10-09T03:19:05;12.60;99.90
37340;DHT22;23223;51.006;7.610;2023-10-09T03:21:30;12.70;99.90
37340;DHT22;23223;51.006;7.610;2023-10-09T03:23:56;12.50;99.90
37340;DHT22;23223;51.006;7.610;2023-10-09T03:26:22;12.20;99.90
37340;DHT22;23223;51.006;7.610;2023-10-09T03:28:51;11.90;99.90
37340;DHT22;23223;51.006;7.610;2023-10-09T03:31:18;11.70;99.90
37340;DHT22;23223;51.006;7.610;2023-10-09T03:33:43;11.60;99.90
37340;DHT22;23223;51.006;7.610;2023-10-09T03:36:09;11.60;99.90
37340;DHT22;23223;51.006;7.610;2023-10-09T03:38:38;11.80;99.90
37340;DHT22;23223;51.006;7.610;2023-10-09T03:41:05;11.80;99.90
37340;DHT22;23223;51.006;7.610;2023-10-09T03:43:35;11.60;99.90
37340;DHT22;23223;51.006;7.610;2023-10-09T03:46:09;11.40;99.90
37340;DHT22;23223;51.006;7.610;2023-10-09T03:48:58;11.20;99.90
37340;DHT22;23223;51.006;7.610;2023-10-09T03:51:27;11.30;99.90
37340;DHT22;23223;51.006;7.610;2023-10-09T03:53:53;11.20;99.90
37340;DHT22;23223;51.006;7.610;2023-10-09T03:56:18;11.20;99.90
37340;DHT22;23223;51.006;7.610;2023-10-09T03:58:47;11.30;99.90
37340;DHT22;23223;51.006;7.610;2023-10-09T04:01:16;11.60;99.90
37340;DHT22;23223;51.006;7.610;2023-10-09T04:03:54;11.80;99.90
37340;DHT22;23223;51.006;7.610;2023-10-09T04:06:24;12.00;99.90
37340;DHT22;23223;51.006;7.610;2023-10-09T04:08:56;11.80;99.90
37340;DHT22;23223;51.006;7.610;2023-10-09T04:11:24;11.70;99.90
37340;DHT22;23223;51.006;7.610;2023-10-09T04:13:50;11.60;99.90
37340;DHT22;23223;51.006;7.610;2023-10-09T04:16:18;11.40;99.90
37340;DHT22;23223;51.006;7.610;2023-10-09T04:18:53;11.40;99.90
37340;DHT22;23223;51.006;7.610;2023-10-09T04:21:22;11.10;99.90
37340;DHT22;23223;51.006;7.610;2023-10-09T04:24:04;11.00;99.90
37340;DHT22;23223;51.006;7.610;2023-10-09T04:26:43;10.80;99.90
37340;DHT22;23223;51.006;7.610;2023-10-09T04:29:13;10.70;99.90
37340;DHT22;23223;51.006;7.610;2023-10-09T04:32:03;10.60;99.90
37340;DHT22;23223;51.006;7.610;2023-10-09T04:34:33;10.70;99.90
37340;DHT22;23223;51.006;7.610;2023-10-09T04:37:03;10.90;99.90
37340;DHT22;23223;51.006;7.610;2023-10-09T04:39:48;11.40;99.90
37340;DHT22;23223;51.006;7.610;2023-10-09T04:42:15;11.80;99.90
37340;DHT22;23223;51.006;7.610;2023-10-09T04:44:46;11.90;99.90
37340;DHT22;23223;51.006;7.610;2023-10-09T04:47:35;12.20;99.90
37340;DHT22;23223;51.006;7.610;2023-10-09T04:52:35;12.30;99.90
37340;DHT22;23223;51.006;7.610;2023-10-09T04:55:01;12.10;99.90
37340;DHT22;23223;51.006;7.610;2023-10-09T04:57:39;12.00;99.90
37340;DHT22;23223;51.006;7.610;2023-10-09T05:00:15;12.10;99.90
37340;DHT22;23223;51.006;7.610;2023-10-09T05:03:08;12.30;99.90
37340;DHT22;23223;51.006;7.610;2023-10-09T05:05:38;12.70;99.90
37340;DHT22;23223;51.006;7.610;2023-10-09T05:08:07;12.40;99.90
37340;DHT22;23223;51.006;7.610;2023-10-09T05:10:45;12.00;99.90
37340;DHT22;23223;51.006;7.610;2023-10-09T05:13:36;11.70;99.90
37340;DHT22;23223;51.006;7.610;2023-10-09T05:16:15;11.80;99.90
37340;DHT22;23223;51.006;7.610;2023-10-09T05:18:48;12.20;99.90
37340;DHT22;23223;51.006;7.610;2023-10-09T05:21:39;12.60;99.90
37340;DHT22;23223;51.006;7.610;2023-10-09T05:24:08;13.00;99.90
37340;DHT22;23223;51.006;7.610;2023-10-09T05:26:41;12.90;99.90
37340;DHT22;23223;51.006;7.610;2023-10-09T05:29:10;12.60;99.90
37340;DHT22;23223;51.006;7.610;2023-10-09T05:31:49;12.80;99.90
37340;DHT22;23223;51.006;7.610;2023-10-09T05:34:34;13.10;99.90
37340;DHT22;23223;51.006;7.610;2023-10-09T05:37:02;13.00;99.90
37340;DHT22;23223;51.006;7.610;2023-10-09T05:39:44;12.60;99.90
37340;DHT22;23223;51.006;7.610;2023-10-09T05:42:23;12.30;99.90
37340;DHT22;23223;51.006;7.610;2023-10-09T05:44:54;12.20;99.90
37340;DHT22;23223;51.006;7.610;2023-10-09T05:47:38;12.30;99.90
37340;DHT22;23223;51.006;7.610;2023-10-09T05:50:13;12.10;99.90
37340;DHT22;23223;51.006;7.610;2023-10-09T05:52:39;11.90;99.90
37340;DHT22;23223;51.006;7.610;2023-10-09T05:55:08;12.00;99.90
37340;DHT22;23223;51.006;7.610;2023-10-09T05:57:43;12.30;99.90
37340;DHT22;23223;51.006;7.610;2023-10-09T06:00:20;12.30;99.90
37340;DHT22;23223;51.006;7.610;2023-10-09T06:03:04;12.10;99.90
37340;DHT22;23223;51.006;7.610;2023-10-09T06:05:56;11.90;99.90
37340;DHT22;23223;51.006;7.610;2023-10-09T06:08:22;11.90;99.90
37340;DHT22;23223;51.006;7.610;2023-10-09T06:11:13;12.10;99.90
37340;DHT22;23223;51.006;7.610;2023-10-09T06:14:01;12.50;99.90
37340;DHT22;23223;51.006;7.610;2023-10-09T06:16:41;12.90;99.90
37340;DHT22;23223;51.006;7.610;2023-10-09T06:19:07;12.70;99.90
37340;DHT22;23223;51.006;7.610;2023-10-09T06:21:37;12.40;99.90
37340;DHT22;23223;51.006;7.610;2023-10-09T06:24:25;12.20;99.90
37340;DHT22;23223;51.006;7.610;2023-10-09T06:27:11;11.90;99.90
37340;DHT22;23223;51.006;7.610;2023-10-09T06:29:38;12.00;99.90
37340;DHT22;23223;51.006;7.610;2023-10-09T06:32:10;12.30;99.90
37340;DHT22;23223;51.006;7.610;2023-10-09T06:34:49;12.70;99.90
37340;DHT22;23223;51.006;7.610;2023-10-09T06:37:21;12.70;99.90
37340;DHT22;23223;51.006;7.610;2023-10-09T06:39:56;12.70;99.90
37340;DHT22;23223;51.006;7.610;2023-10-09T06:42:22;12.90;99.90
37340;DHT22;23223;51.006;7.610;2023-10-09T06:45:10;13.30;99.90
37340;DHT22;23223;51.006;7.610;2023-10-09T06:47:42;13.70;99.90
37340;DHT22;23223;51.006;7.610;2023-10-09T06:50:19;14.00;99.90
37340;DHT22;23223;51.006;7.610;2023-10-09T06:52:52;14.20;99.90
37340;DHT22;23223;51.006;7.610;2023-10-09T06:55:37;14.10;99.90
37340;DHT22;23223;51.006;7.610;2023-10-09T06:58:14;14.10;99.90
37340;DHT22;23223;51.006;7.610;2023-10-09T07:00:49;14.00;99.90
37340;DHT22;23223;51.006;7.610;2023-10-09T07:03:28;13.70;99.90
37340;DHT22;23223;51.006;7.610;2023-10-09T07:06:10;13.50;99.90
37340;DHT22;23223;51.006;7.610;2023-10-09T07:09:12;13.20;99.90
37340;DHT22;23223;51.006;7.610;2023-10-09T07:11:49;13.10;99.90
37340;DHT22;23223;51.006;7.610;2023-10-09T07:14:22;13.00;99.90
37340;DHT22;23223;51.006;7.610;2023-10-09T07:17:04;12.90;99.90
37340;DHT22;23223;51.006;7.610;2023-10-09T07:19:42;12.90;99.90
37340;DHT22;23223;51.006;7.610;2023-10-09T07:22:08;12.80;99.90
37340;DHT22;23223;51.006;7.610;2023-10-09T07:24:50;13.00;99.90
37340;DHT22;23223;51.006;7.610;2023-10-09T07:27:29;13.30;99.90
37340;DHT22;23223;51.006;7.610;2023-10-09T07:30:16;13.50;99.90
37340;DHT22;23223;51.006;7.610;2023-10-09T07:32:58;13.50;99.90
37340;DHT22;23223;51.006;7.610;2023-10-09T07:35:33;13.50;99.90
37340;DHT22;23223;51.006;7.610;2023-10-09T07:38:13;13.70;99.90
37340;DHT22;23223;51.006;7.610;2023-10-09T07:40:41;13.90;99.90
37340;DHT22;23223;51.006;7.610;2023-10-09T07:43:29;14.20;99.90
37340;DHT22;23223;51.006;7.610;2023-10-09T07:46:04;14.10;99.90
37340;DHT22;23223;51.006;7.610;2023-10-09T07:48:30;13.90;99.90
37340;DHT22;23223;51.006;7.610;2023-10-09T07:51:12;13.70;99.90
37340;DHT22;23223;51.006;7.610;2023-10-09T07:53:37;13.70;99.90
37340;DHT22;23223;51.006;7.610;2023-10-09T07:56:12;14.00;99.90
37340;DHT22;23223;51.006;7.610;2023-10-09T07:58:48;14.30;99.90
37340;DHT22;23223;51.006;7.610;2023-10-09T08:01:15;14.40;99.90
37340;DHT22;23223;51.006;7.610;2023-10-09T08:04:07;14.50;99.90
37340;DHT22;23223;51.006;7.610;2023-10-09T08:06:41;14.70;99.90
37340;DHT22;23223;51.006;7.610;2023-10-09T08:09:10;15.00;99.90
37340;DHT22;23223;51.006;7.610;2023-10-09T08:11:48;15.30;99.90
37340;DHT22;23223;51.006;7.610;2023-10-09T08:14:41;15.30;99.90
37340;DHT22;23223;51.006;7.610;2023-10-09T08:17:08;15.30;99.90
37340;DHT22;23223;51.006;7.610;2023-10-09T08:19:48;15.30;99.90
37340;DHT22;23223;51.006;7.610;2023-10-09T08:22:30;15.50;99.90
37340;DHT22;23223;51.006;7.610;2023-10-09T08:24:56;15.70;99.90
37340;DHT22;23223;51.006;7.610;2023-10-09T08:27:26;15.70;99.90
37340;DHT22;23223;51.006;7.610;2023-10-09T08:30:06;15.70;99.90
37340;DHT22;23223;51.006;7.610;2023-10-09T08:32:53;16.00;99.90
37340;DHT22;23223;51.006;7.610;2023-10-09T08:35:33;16.30;99.90
37340;DHT22;23223;51.006;7.610;2023-10-09T08:38:03;16.40;99.90
37340;DHT22;23223;51.006;7.610;2023-10-09T08:40:37;16.20;99.90
37340;DHT22;23223;51.006;7.610;2023-10-09T08:43:24;16.20;99.90
37340;DHT22;23223;51.006;7.610;2023-10-09T08:45:53;16.30;99.90
37340;DHT22;23223;51.006;7.610;2023-10-09T08:48:20;16.30;99.90
37340;DHT22;23223;51.006;7.610;2023-10-09T08:50:48;16.10;99.90
37340;DHT22;23223;51.006;7.610;2023-10-09T08:53:19;16.20;99.90
37340;DHT22;23223;51.006;7.610;2023-10-09T08:55:45;16.30;99.90
37340;DHT22;23223;51.006;7.610;2023-10-09T08:58:15;16.30;99.90
37340;DHT22;23223;51.006;7.610;2023-10-09T09:00:49;16.10;99.90
37340;DHT22;23223;51.006;7.610;2023-10-09T09:03:16;16.20;99.90
37340;DHT22;23223;51.006;7.610;2023-10-09T09:05:46;16.30;99.90
37340;DHT22;23223;51.006;7.610;2023-10-09T09:08:24;16.40;99.90
37340;DHT22;23223;51.006;7.610;2023-10-09T09:11:20;16.50;99.90
37340;DHT22;23223;51.006;7.610;2023-10-09T09:14:05;16.40;99.90
37340;DHT22;23223;51.006;7.610;2023-10-09T09:16:33;16.40;99.90
37340;DHT22;23223;51.006;7.610;2023-10-09T09:19:07;16.50;99.90
37340;DHT22;23223;51.006;7.610;2023-10-09T09:21:41;16.80;99.90
37340;DHT22;23223;51.006;7.610;2023-10-09T09:24:12;17.10;99.90
37340;DHT22;23223;51.006;7.610;2023-10-09T09:26:57;17.40;99.90
37340;DHT22;23223;51.006;7.610;2023-10-09T09:29:46;17.70;99.90
37340;DHT22;23223;51.006;7.610;2023-10-09T09:32:27;17.90;99.90
37340;DHT22;23223;51.006;7.610;2023-10-09T09:34:55;18.10;99.90
37340;DHT22;23223;51.006;7.610;2023-10-09T09:37:27;18.20;99.90
37340;DHT22;23223;51.006;7.610;2023-10-09T09:40:00;18.60;99.90
37340;DHT22;23223;51.006;7.610;2023-10-09T09:42:27;19.00;99.90
37340;DHT22;23223;51.006;7.610;2023-10-09T09:44:55;19.10;99.90
37340;DHT22;23223;51.006;7.610;2023-10-09T09:47:21;18.90;99.90
37340;DHT22;23223;51.006;7.610;2023-10-09T09:49:54;18.90;99.90
37340;DHT22;23223;51.006;7.610;2023-10-09T09:52:29;18.80;99.90
37340;DHT22;23223;51.006;7.610;2023-10-09T09:55:04;18.80;99.90
37340;DHT22;23223;51.006;7.610;2023-10-09T09:57:33;18.90;99.90
37340;DHT22;23223;51.006;7.610;2023-10-09T10:00:06;19.10;99.90
37340;DHT22;23223;51.006;7.610;2023-10-09T10:02:45;19.70;99.90
37340;DHT22;23223;51.006;7.610;2023-10-09T10:05:12;20.50;99.90
37340;DHT22;23223;51.006;7.610;2023-10-09T10:07:41;21.40;99.90
37340;DHT22;23223;51.006;7.610;2023-10-09T10:10:37;22.40;99.90
37340;DHT22;23223;51.006;7.610;2023-10-09T10:13:05;23.10;99.90
37340;DHT22;23223;51.006;7.610;2023-10-09T10:16:10;23.40;99.90
37340;DHT22;23223;51.006;7.610;2023-10-09T10:18:58;23.90;99.90
37340;DHT22;23223;51.006;7.610;2023-10-09T10:21:34;24.10;99.90
37340;DHT22;23223;51.006;7.610;2023-10-09T10:29:44;23.40;99.90
37340;DHT22;23223;51.006;7.610;2023-10-09T10:32:15;23.10;99.90
37340;DHT22;23223;51.006;7.610;2023-10-09T10:37:36;22.60;99.90
37340;DHT22;23223;51.006;7.610;2023-10-09T10:40:28;22.00;99.90
37340;DHT22;23223;51.006;7.610;2023-10-09T10:43:16;21.50;99.90
37340;DHT22;23223;51.006;7.610;2023-10-09T10:46:06;21.30;99.90
37340;DHT22;23223;51.006;7.610;2023-10-09T10:48:42;21.20;99.90
37340;DHT22;23223;51.006;7.610;2023-10-09T10:51:15;21.20;99.90
37340;DHT22;23223;51.006;7.610;2023-10-09T10:53:51;21.20;99.90
37340;DHT22;23223;51.006;7.610;2023-10-09T10:56:18;21.30;99.90
37340;DHT22;23223;51.006;7.610;2023-10-09T10:58:54;21.40;99.90
37340;DHT22;23223;51.006;7.610;2023-10-09T11:01:33;21.60;99.90
37340;DHT22;23223;51.006;7.610;2023-10-09T11:04:18;21.60;99.90
37340;DHT22;23223;51.006;7.610;2023-10-09T11:06:53;21.60;99.90
37340;DHT22;23223;51.006;7.610;2023-10-09T11:09:26;21.60;99.90
37340;DHT22;23223;51.006;7.610;2023-10-09T11:12:05;21.60;99.90
37340;DHT22;23223;51.006;7.610;2023-10-09T11:14:50;21.50;99.90
37340;DHT22;23223;51.006;7.610;2023-10-09T11:17:37;21.50;99.90
37340;DHT22;23223;51.006;7.610;2023-10-09T11:20:07;21.70;99.90
37340;DHT22;23223;51.006;7.610;2023-10-09T11:22:52;21.80;99.90
37340;DHT22;23223;51.006;7.610;2023-10-09T11:25:37;21.80;99.90
37340;DHT22;23223;51.006;7.610;2023-10-09T11:28:20;21.80;99.90
37340;DHT22;23223;51.006;7.610;2023-10-09T11:31:09;21.60;99.90
37340;DHT22;23223;51.006;7.610;2023-10-09T11:34:17;21.60;99.90
37340;DHT22;23223;51.006;7.610;2023-10-09T11:36:48;21.50;99.90
37340;DHT22;23223;51.006;7.610;2023-10-09T11:39:39;21.40;99.90
37340;DHT22;23223;51.006;7.610;2023-10-09T11:42:22;21.50;99.90
37340;DHT22;23223;51.006;7.610;2023-10-09T11:45:18;21.60;99.90
37340;DHT22;23223;51.006;7.610;2023-10-09T11:47:53;21.80;99.90
37340;DHT22;23223;51.006;7.610;2023-10-09T11:50:43;22.00;99.90
37340;DHT22;23223;51.006;7.610;2023-10-09T11:53:10;22.00;99.90
37340;DHT22;23223;51.006;7.610;2023-10-09T11:56:05;22.00;99.90
37340;DHT22;23223;51.006;7.610;2023-10-09T11:58:34;22.00;99.90
37340;DHT22;23223;51.006;7.610;2023-10-09T12:01:11;21.90;99.90
37340;DHT22;23223;51.006;7.610;2023-10-09T12:03:43;21.90;99.90
37340;DHT22;23223;51.006;7.610;2023-10-09T12:06:15;22.00;99.90
37340;DHT22;23223;51.006;7.610;2023-10-09T12:08:44;22.10;99.90
37340;DHT22;23223;51.006;7.610;2023-10-09T12:11:12;22.30;99.90
37340;DHT22;23223;51.006;7.610;2023-10-09T12:13:40;22.30;99.90
37340;DHT22;23223;51.006;7.610;2023-10-09T12:16:08;22.30;99.90
37340;DHT22;23223;51.006;7.610;2023-10-09T12:18:37;22.10;99.90
37340;DHT22;23223;51.006;7.610;2023-10-09T12:21:05;22.30;99.90
37340;DHT22;23223;51.006;7.610;2023-10-09T12:23:32;22.20;99.90
37340;DHT22;23223;51.006;7.610;2023-10-09T12:26:04;22.10;99.90
37340;DHT22;23223;51.006;7.610;2023-10-09T12:28:30;22.00;99.90
37340;DHT22;23223;51.006;7.610;2023-10-09T12:30:59;22.10;99.90
37340;DHT22;23223;51.006;7.610;2023-10-09T12:33:29;22.30;99.90
37340;DHT22;23223;51.006;7.610;2023-10-09T12:35:55;22.30;99.90
37340;DHT22;23223;51.006;7.610;2023-10-09T12:38:28;22.40;99.90
37340;DHT22;23223;51.006;7.610;2023-10-09T12:41:06;22.40;99.90
37340;DHT22;23223;51.006;7.610;2023-10-09T12:43:52;22.40;99.90
37340;DHT22;23223;51.006;7.610;2023-10-09T12:46:19;22.50;99.90
37340;DHT22;23223;51.006;7.610;2023-10-09T12:48:52;22.50;99.90
37340;DHT22;23223;51.006;7.610;2023-10-09T12:51:20;22.50;99.90
37340;DHT22;23223;51.006;7.610;2023-10-09T12:53:47;22.30;99.90
37340;DHT22;23223;51.006;7.610;2023-10-09T12:56:25;22.20;99.90
37340;DHT22;23223;51.006;7.610;2023-10-09T12:59:03;22.10;99.90
37340;DHT22;23223;51.006;7.610;2023-10-09T13:01:30;22.10;99.90
37340;DHT22;23223;51.006;7.610;2023-10-09T13:04:08;22.10;99.90
37340;DHT22;23223;51.006;7.610;2023-10-09T13:06:38;22.10;99.90
37340;DHT22;23223;51.006;7.610;2023-10-09T13:09:10;22.00;99.90
37340;DHT22;23223;51.006;7.610;2023-10-09T13:11:36;22.00;99.90
37340;DHT22;23223;51.006;7.610;2023-10-09T13:14:03;22.00;99.90
37340;DHT22;23223;51.006;7.610;2023-10-09T13:16:37;21.90;99.90
37340;DHT22;23223;51.006;7.610;2023-10-09T13:19:02;21.80;99.90
37340;DHT22;23223;51.006;7.610;2023-10-09T13:21:35;21.80;99.90
37340;DHT22;23223;51.006;7.610;2023-10-09T13:24:04;21.50;99.90
37340;DHT22;23223;51.006;7.610;2023-10-09T13:26:30;21.50;99.90
37340;DHT22;23223;51.006;7.610;2023-10-09T13:28:58;21.50;99.90
37340;DHT22;23223;51.006;7.610;2023-10-09T13:31:25;21.50;99.90
37340;DHT22;23223;51.006;7.610;2023-10-09T13:33:55;21.40;99.90
37340;DHT22;23223;51.006;7.610;2023-10-09T13:36:22;21.40;99.90
37340;DHT22;23223;51.006;7.610;2023-10-09T13:39:06;21.50;99.90
37340;DHT22;23223;51.006;7.610;2023-10-09T13:41:54;21.40;99.90
37340;DHT22;23223;51.006;7.610;2023-10-09T13:44:27;21.40;99.90
37340;DHT22;23223;51.006;7.610;2023-10-09T13:46:54;21.40;99.90
37340;DHT22;23223;51.006;7.610;2023-10-09T13:49:20;21.50;99.90
37340;DHT22;23223;51.006;7.610;2023-10-09T13:51:48;21.40;99.90
37340;DHT22;23223;51.006;7.610;2023-10-09T13:54:16;21.50;99.90
37340;DHT22;23223;51.006;7.610;2023-10-09T13:56:57;21.60;99.90
37340;DHT22;23223;51.006;7.610;2023-10-09T13:59:23;21.70;99.90
37340;DHT22;23223;51.006;7.610;2023-10-09T14:01:53;21.80;99.90
37340;DHT22;23223;51.006;7.610;2023-10-09T14:04:25;21.90;99.90
37340;DHT22;23223;51.006;7.610;2023-10-09T14:06:51;22.00;99.90
37340;DHT22;23223;51.006;7.610;2023-10-09T14:09:25;22.20;99.90
37340;DHT22;23223;51.006;7.610;2023-10-09T14:11:59;22.50;99.90
37340;DHT22;23223;51.006;7.610;2023-10-09T14:14:39;22.50;98.10
37340;DHT22;23223;51.006;7.610;2023-10-09T14:17:18;22.50;99.90
37340;DHT22;23223;51.006;7.610;2023-10-09T14:19:52;22.40;99.90
37340;DHT22;23223;51.006;7.610;2023-10-09T14:22:22;22.40;99.90
37340;DHT22;23223;51.006;7.610;2023-10-09T14:24:50;22.60;99.90
37340;DHT22;23223;51.006;7.610;2023-10-09T14:27:23;22.80;95.70
37340;DHT22;23223;51.006;7.610;2023-10-09T14:29:55;23.00;94.30
37340;DHT22;23223;51.006;7.610;2023-10-09T14:32:23;23.10;91.50
37340;DHT22;23223;51.006;7.610;2023-10-09T14:34:55;23.10;93.40
37340;DHT22;23223;51.006;7.610;2023-10-09T14:37:26;23.20;84.30
37340;DHT22;23223;51.006;7.610;2023-10-09T14:39:52;23.10;91.90
37340;DHT22;23223;51.006;7.610;2023-10-09T14:42:18;23.00;99.00
37340;DHT22;23223;51.006;7.610;2023-10-09T14:44:46;23.00;96.00
37340;DHT22;23223;51.006;7.610;2023-10-09T14:47:11;23.00;94.50
37340;DHT22;23223;51.006;7.610;2023-10-09T14:49:39;22.90;95.40
37340;DHT22;23223;51.006;7.610;2023-10-09T14:52:15;22.80;99.90
37340;DHT22;23223;51.006;7.610;2023-10-09T14:54:46;22.70;99.90
37340;DHT22;23223;51.006;7.610;2023-10-09T14:57:14;22.50;99.90
37340;DHT22;23223;51.006;7.610;2023-10-09T14:59:40;22.30;99.90
37340;DHT22;23223;51.006;7.610;2023-10-09T15:02:11;22.00;99.90
37340;DHT22;23223;51.006;7.610;2023-10-09T15:04:40;21.80;99.90
37340;DHT22;23223;51.006;7.610;2023-10-09T15:07:05;21.70;99.90
37340;DHT22;23223;51.006;7.610;2023-10-09T15:09:35;21.60;99.90
37340;DHT22;23223;51.006;7.610;2023-10-09T15:12:02;21.50;99.90
37340;DHT22;23223;51.006;7.610;2023-10-09T15:14:28;21.50;99.90
37340;DHT22;23223;51.006;7.610;2023-10-09T15:16:53;21.40;99.90
37340;DHT22;23223;51.006;7.610;2023-10-09T15:19:19;21.30;99.90
37340;DHT22;23223;51.006;7.610;2023-10-09T15:21:54;21.10;99.90
37340;DHT22;23223;51.006;7.610;2023-10-09T15:24:19;20.90;99.90
37340;DHT22;23223;51.006;7.610;2023-10-09T15:26:46;20.90;99.90
37340;DHT22;23223;51.006;7.610;2023-10-09T15:29:21;20.90;99.90
37340;DHT22;23223;51.006;7.610;2023-10-09T15:32:00;20.80;99.90
37340;DHT22;23223;51.006;7.610;2023-10-09T15:34:33;20.80;99.90
37340;DHT22;23223;51.006;7.610;2023-10-09T15:37:00;20.80;99.90
37340;DHT22;23223;51.006;7.610;2023-10-09T15:39:26;20.70;99.90
37340;DHT22;23223;51.006;7.610;2023-10-09T15:41:51;20.60;99.90
37340;DHT22;23223;51.006;7.610;2023-10-09T15:44:17;20.40;99.90
37340;DHT22;23223;51.006;7.610;2023-10-09T15:46:43;20.30;99.90
37340;DHT22;23223;51.006;7.610;2023-10-09T15:49:13;20.30;99.90
37340;DHT22;23223;51.006;7.610;2023-10-09T15:51:40;20.30;99.90
37340;DHT22;23223;51.006;7.610;2023-10-09T15:54:09;20.30;99.90
37340;DHT22;23223;51.006;7.610;2023-10-09T15:56:37;20.20;99.90
37340;DHT22;23223;51.006;7.610;2023-10-09T15:59:07;20.20;99.90
37340;DHT22;23223;51.006;7.610;2023-10-09T16:01:32;20.20;99.90
37340;DHT22;23223;51.006;7.610;2023-10-09T16:04:01;20.20;99.90
37340;DHT22;23223;51.006;7.610;2023-10-09T16:06:26;20.20;99.90
37340;DHT22;23223;51.006;7.610;2023-10-09T16:08:56;20.10;99.90
37340;DHT22;23223;51.006;7.610;2023-10-09T16:11:22;19.90;99.90
37340;DHT22;23223;51.006;7.610;2023-10-09T16:13:52;19.80;99.90
37340;DHT22;23223;51.006;7.610;2023-10-09T16:16:28;19.70;99.90
37340;DHT22;23223;51.006;7.610;2023-10-09T16:18:54;19.70;99.90
37340;DHT22;23223;51.006;7.610;2023-10-09T16:21:23;19.50;99.90
37340;DHT22;23223;51.006;7.610;2023-10-09T16:23:53;19.50;99.90